Latest Weather Observations for Cabramurra

IDN60901

Issued at 6:01 pm EST Wednesday 31 August 2016 (issued every 10 minutes, with the page automatically refreshed every 10 minutes)

About weather observations | Map of Canberra area stations | Latest observations for Canberra area | Other Formats
Station Details ID: 072161 Name: CABRAMURRA SMHEA AWS Lat: -35.94 Lon: 148.38 Height: 1482.4 m
Data from the previous 72 hours. | See also: Recent months at Cabramurra
Date/Time
EST
Temp
°C
App
Temp
°C
Dew
Point
°C
Rel
Hum
%
Delta-T
°C
Wind Press
QNH
hPa
Press
MSL
hPa
Rain since
9am
mm
Dir  Spd
km/h
Gust
km/h
Spd
kts
Gust
kts
31/06:00pm 5.2 -2.9 5.2 100 0.0 W 37 63 20 34 - - 11.0
31/05:30pm 5.3 -1.1 5.3 100 0.0 WNW 28 46 15 25 - - 10.0
31/05:03pm 5.4 -1.0 5.4 100 0.0 W 28 48 15 26 - - 9.6
31/05:00pm 5.6 -1.1 5.6 100 0.0 W 30 50 16 27 - - 9.6
31/04:30pm 5.4 -1.7 5.4 100 0.0 W 32 52 17 28 - - 9.6
31/04:00pm 5.6 -1.5 5.6 100 0.0 W 32 50 17 27 - - 9.2
31/03:50pm 5.7 -0.6 5.7 100 0.0 W 28 59 15 32 - - 8.8
31/03:30pm 5.7 -0.6 5.7 100 0.0 W 28 39 15 21 - - 8.6
31/03:00pm 5.5 -1.6 5.5 100 0.0 W 32 54 17 29 - - 8.4
31/02:30pm 5.7 -1.9 5.7 100 0.0 W 35 54 19 29 - - 8.2
31/02:14pm 5.7 -2.3 5.7 100 0.0 W 37 59 20 32 - - 8.2
31/02:00pm 6.2 -0.9 6.2 100 0.0 NW 33 63 18 34 - - 8.2
31/01:30pm 5.8 -1.4 5.8 100 0.0 WNW 33 54 18 29 - - 8.2
31/01:17pm 6.0 -1.0 6.0 100 0.0 WNW 32 50 17 27 - - 8.2
31/01:10pm 6.0 -1.0 6.0 100 0.0 WNW 32 50 17 27 - - 8.2
31/01:00pm 6.1 -1.8 6.1 100 0.0 W 37 61 20 33 - - 8.2
31/12:41pm 6.3 -0.6 6.3 100 0.0 WNW 32 54 17 29 - - 6.6
31/12:30pm 6.0 -1.6 6.0 100 0.0 WNW 35 56 19 30 - - 4.4
31/12:28pm 6.1 -1.4 6.1 100 0.0 WNW 35 56 19 30 - - 4.2
31/12:01pm 6.2 -1.3 6.2 100 0.0 NW 35 54 19 29 - - 3.4
31/12:00pm 6.2 -1.7 6.2 100 0.0 NW 37 54 20 29 - - 3.4
31/11:54am 6.4 -1.1 6.4 100 0.0 NW 35 61 19 33 - - 3.2
31/11:49am 6.2 -2.8 6.2 100 0.0 WNW 43 80 23 43 - - 3.2
31/11:44am 6.4 -1.1 6.4 100 0.0 NW 35 80 19 43 - - 3.0
31/11:42am 6.8 0.7 6.8 100 0.0 NW 28 65 15 35 - - 2.8
31/11:30am 6.9 0.5 6.9 100 0.0 NW 30 41 16 22 - - 1.8
31/11:00am 6.9 0.9 6.9 100 0.0 NNW 28 39 15 21 - - 0.0
31/10:30am 6.8 1.1 6.8 100 0.0 NNW 26 39 14 21 - - 0.0
31/10:00am 6.7 1.4 6.7 100 0.0 NNW 24 37 13 20 - - 0.0
31/09:30am 7.1 3.2 7.1 100 0.0 N 17 24 9 13 - - 0.0
31/09:00am 6.1 2.0 6.1 100 0.0 WNW 17 28 9 15 - - 18.2
31/08:30am 5.9 -0.7 5.9 100 0.0 WNW 30 44 16 24 - - 17.2
31/08:00am 6.2 0.4 6.2 100 0.0 WNW 26 39 14 21 - - 15.6
31/07:36am 6.2 -0.4 6.2 100 0.0 NW 30 50 16 27 - - 14.4
31/07:30am 6.2 0.8 6.2 100 0.0 NW 24 39 13 21 - - 14.2
31/07:00am 6.2 0.4 6.2 100 0.0 NW 26 48 14 26 - - 13.6
31/06:30am 6.6 0.5 6.6 100 0.0 NNW 28 46 15 25 - - 12.4
31/06:22am 6.5 0.0 6.5 100 0.0 NNW 30 48 16 26 - - 12.0
31/06:00am 6.9 0.5 6.9 100 0.0 NNW 30 41 16 22 - - 11.0
31/05:30am 7.1 0.2 7.1 100 0.0 NNW 33 48 18 26 - - 9.4
31/05:00am 7.1 1.5 7.1 100 0.0 NNW 26 48 14 26 - - 7.2
31/04:30am 7.3 1.4 7.3 100 0.0 NNW 28 50 15 27 - - 5.8
31/04:00am 7.6 1.3 7.6 100 0.0 NNW 30 48 16 26 - - 4.0
31/03:30am 7.6 1.3 7.6 100 0.0 NNW 30 46 16 25 - - 2.8
31/03:00am 7.7 0.1 7.7 100 0.0 NNW 37 52 20 28 - - 1.8
31/02:30am 7.6 0.8 7.6 100 0.0 NNW 33 52 18 28 - - 1.6
31/02:00am 7.7 0.5 7.7 100 0.0 NNW 35 54 19 29 - - 0.8
31/01:30am 7.6 0.4 7.6 100 0.0 NNW 35 54 19 29 - - 0.6
31/01:00am 7.5 0.7 7.5 100 0.0 NNW 33 52 18 28 - - 0.6
31/12:30am 7.6 0.4 7.6 100 0.0 NNW 35 54 19 29 - - 0.4
31/12:00am 7.4 0.7 7.4 100 0.0 NNW 32 50 17 27 - - 0.4
 
Date/Time
EST
Temp
°C
App
Temp
°C
Dew
Point
°C
Rel
Hum
%
Delta-T
°C
Wind Press
QNH
hPa
Press
MSL
hPa
Rain since
9am
mm
Dir  Spd
km/h
Gust
km/h
Spd
kts
Gust
kts
30/11:58pm 7.4 1.1 7.4 100 0.0 NNW 30 50 16 27 - - 0.4
30/11:30pm 7.3 1.4 7.3 100 0.0 NNW 28 43 15 23 - - 0.4
30/11:00pm 7.3 1.7 7.3 100 0.0 NNW 26 35 14 19 - - 0.4
30/10:30pm 7.3 1.4 7.3 100 0.0 NNW 28 44 15 24 - - 0.4
30/10:00pm 7.0 1.0 7.0 100 0.0 NNW 28 39 15 21 - - 0.2
30/09:30pm 7.1 1.5 7.0 99 0.1 NNW 26 37 14 20 - - 0.0
30/09:00pm 7.3 1.7 7.0 98 0.2 NNW 26 41 14 22 - - 0.0
30/08:30pm 7.7 2.3 6.3 91 0.7 NNW 24 32 13 17 - - 0.0
30/08:00pm 7.8 1.9 5.8 87 1.0 NNW 26 35 14 19 - - 0.0
30/07:30pm 7.7 2.9 5.5 86 1.1 N 20 28 11 15 - - 0.0
30/07:00pm 7.8 1.7 4.9 82 1.4 N 26 39 14 21 - - 0.0
30/06:30pm 8.0 1.4 4.4 78 1.7 N 28 35 15 19 - - 0.0
30/06:00pm 8.0 2.1 4.0 76 1.9 N 24 35 13 19 - - 0.0
30/05:30pm 7.8 2.6 3.8 76 1.9 N 20 28 11 15 - - 0.0
30/05:00pm 7.9 2.7 3.8 75 1.9 NNW 20 30 11 16 - - 0.0
30/04:30pm 8.1 2.9 3.4 72 2.2 N 20 30 11 16 - - 0.0
30/04:00pm 8.3 3.3 3.4 71 2.3 N 19 28 10 15 - - 0.0
30/03:30pm 8.6 2.9 2.8 67 2.7 NNW 22 32 12 17 - - 0.0
30/03:00pm 9.0 2.2 3.2 67 2.7 N 28 39 15 21 - - 0.0
30/02:30pm 9.6 3.9 2.7 62 3.2 N 22 32 12 17 - - 0.0
30/02:00pm 9.9 3.6 1.3 55 3.9 NNW 24 37 13 20 - - 0.0
30/01:30pm 9.0 1.9 -1.4 48 4.4 N 26 35 14 19 - - 0.0
30/01:00pm 9.7 2.9 -1.9 44 4.9 NNW 24 33 13 18 - - 0.0
30/12:30pm 9.0 3.0 -1.4 48 4.4 NNW 20 32 11 17 - - 0.0
30/12:00pm 9.1 2.6 0.0 53 4.0 N 24 35 13 19 - - 0.0
30/11:30am 8.3 1.6 -1.2 51 4.0 N 24 37 13 20 - - 0.0
30/11:00am 7.7 0.9 -2.0 50 4.0 NNW 24 43 13 23 - - 0.0
30/10:30am 7.7 1.6 -2.6 48 4.2 N 20 26 11 14 - - 0.0
30/10:00am 7.2 1.7 -2.2 51 3.8 N 17 24 9 13 - - 0.0
30/09:30am 6.8 2.0 -2.9 50 3.9 N 13 17 7 9 - - 0.0
30/09:00am 6.6 2.5 -3.3 49 3.9 ENE 9 11 5 6 - - 0.0
30/08:30am 6.5 1.2 -3.4 49 3.9 N 15 20 8 11 - - 0.0
30/08:00am 6.2 0.9 -3.7 49 3.9 N 15 24 8 13 - - 0.0
30/07:30am 5.9 1.2 -5.4 44 4.2 N 11 13 6 7 - - 0.0
30/07:00am 5.8 1.7 -7.1 39 4.6 N 7 11 4 6 - - 0.0
30/06:30am 5.7 1.1 -7.5 38 4.6 NNW 9 13 5 7 - - 0.0
30/06:00am 5.8 1.2 -8.5 35 4.9 NNW 9 13 5 7 - - 0.0
30/05:30am 6.3 0.4 -10.0 30 5.4 NNE 15 20 8 11 - - 0.0
30/05:00am 6.8 0.3 -12.8 23 6.1 NNE 17 24 9 13 - - 0.0
30/04:30am 6.8 -0.2 -12.3 24 6.1 NNE 20 28 11 15 - - 0.0
30/04:00am 6.6 -0.3 -11.0 27 5.8 NNE 20 30 11 16 - - 0.0
30/03:30am 6.5 -0.1 -9.0 32 5.3 NNE 19 28 10 15 - - 0.0
30/03:00am 6.4 -0.4 -9.9 30 5.5 NNE 20 28 11 15 - - 0.0
30/02:30am 6.2 -0.1 -10.9 28 5.6 N 17 22 9 12 - - 0.0
30/02:00am 6.6 0.8 -13.6 22 6.2 NNE 13 19 7 10 - - 0.0
30/01:30am 6.6 0.2 -12.0 25 5.9 NNE 17 22 9 12 - - 0.0
30/01:00am 6.0 -0.7 -10.2 30 5.4 NNE 19 24 10 13 - - 0.0
30/12:30am 5.6 -1.0 -8.6 35 4.9 NNE 19 28 10 15 - - 0.0
30/12:00am 5.5 -1.2 -7.7 38 4.6 NNE 20 26 11 14 - - 0.0
 
Date/Time
EST
Temp
°C
App
Temp
°C
Dew
Point
°C
Rel
Hum
%
Delta-T
°C
Wind Press
QNH
hPa
Press
MSL
hPa
Rain since
9am
mm
Dir  Spd
km/h
Gust
km/h
Spd
kts
Gust
kts
29/11:30pm 5.5 -0.6 -7.3 39 4.5 NNE 17 22 9 12 - - 0.0
29/11:00pm 5.9 -0.6 -8.0 36 4.8 NE 19 26 10 14 - - 0.0
29/10:30pm 5.8 -1.1 -6.4 41 4.4 NE 22 30 12 16 - - 0.0
29/10:00pm 5.1 -1.9 -3.7 53 3.4 NE 24 32 13 17 - - 0.0
29/09:30pm 5.0 -1.1 -4.0 52 3.4 NE 19 24 10 13 - - 0.0
29/09:00pm 5.3 -0.1 -4.8 48 3.8 NE 15 20 8 11 - - 0.0
29/08:30pm 5.5 -0.9 -5.2 46 4.0 NE 20 28 11 15 - - 0.0
29/08:00pm 5.1 -0.5 -2.7 57 3.1 ENE 17 26 9 14 - - 0.0
29/07:30pm 4.8 0.8 0.6 74 1.8 ENE 11 17 6 9 - - 0.0
29/07:00pm 4.9 1.3 3.2 89 0.8 ENE 11 15 6 8 - - 0.0
29/06:30pm 4.9 1.5 3.9 93 0.5 ENE 11 13 6 7 - - 0.0
29/06:00pm 4.6 2.6 4.3 98 0.1 E 4 11 2 6 - - 0.0
29/05:30pm 5.4 3.8 4.5 94 0.4 WNW 2 7 1 4 - - 0.0
29/05:00pm 5.8 2.9 4.8 93 0.5 WNW 9 15 5 8 - - 0.0
29/04:30pm 6.6 4.0 4.1 84 1.2 WNW 7 11 4 6 - - 0.0
29/04:00pm 7.5 3.9 3.0 73 2.1 NW 11 15 6 8 - - 0.0
29/03:30pm 8.7 3.9 0.2 55 3.7 NNW 15 22 8 12 - - 0.0
29/03:00pm 8.7 5.3 2.1 63 3.0 N 9 13 5 7 - - 0.0
29/02:30pm 9.6 6.5 3.4 65 2.9 NW 9 17 5 9 - - 0.0
29/02:00pm 9.1 4.2 2.0 61 3.3 NW 17 24 9 13 - - 0.0
29/01:30pm 9.6 5.8 1.5 57 3.7 N 11 20 6 11 - - 0.0
29/01:00pm 8.9 3.8 0.6 56 3.7 NNW 17 24 9 13 - - 0.0
29/12:30pm 8.6 4.5 -0.4 53 3.9 NW 11 22 6 12 - - 0.0
29/12:00pm 8.4 4.5 -1.4 50 4.1 NNW 9 15 5 8 - - 0.0
29/11:30am 7.3 1.4 -2.4 50 3.9 E 19 28 10 15 - - 0.0
29/11:00am 7.9 4.3 -2.1 49 4.1 NE 7 20 4 11 - - 0.0
29/10:30am 7.4 1.8 -2.6 49 4.0 ENE 17 28 9 15 - - 0.0
29/10:00am 6.1 -1.2 -3.0 52 3.6 E 26 35 14 19 - - 0.0
29/09:30am 5.3 -1.2 -2.5 57 3.1 E 22 33 12 18 - - 0.0
29/09:00am 4.0 -4.5 -3.3 59 2.8 E 32 43 17 23 - - 0.0
29/08:30am 4.2 -4.0 -4.3 54 3.2 ESE 30 39 16 21 - - 0.0
29/08:00am 3.8 -4.1 -4.9 53 3.2 ESE 28 35 15 19 - - 0.0
29/07:30am 3.1 -5.2 -4.8 56 2.9 ESE 30 39 16 21 - - 0.0
29/07:00am 2.5 -5.4 -4.7 59 2.8 ESE 28 35 15 19 - - 0.0
29/06:51am 2.4 -4.0 -4.6 60 2.7 ESE 20 32 11 17 - - 0.0
29/06:30am 1.1 -2.5 -2.3 78 1.4 ESE 7 11 4 6 - - 0.0
29/06:00am 0.8 -2.6 -0.8 89 0.6 S 7 11 4 6 - - 0.0
29/05:30am 1.2 -3.7 -0.7 87 0.8 S 15 20 8 11 - - 0.0
29/05:00am 1.3 -3.9 0.0 91 0.5 S 17 24 9 13 - - 0.0
29/04:30am 1.4 -3.4 0.4 93 0.4 SSW 15 19 8 10 - - 0.0
29/04:00am 1.6 -3.0 1.3 98 0.1 SSW 15 19 8 10 - - 0.0
29/03:30am 1.9 -2.3 1.8 99 0.0 SW 13 17 7 9 - - 0.0
29/03:00am 2.0 -2.2 1.9 99 0.0 SW 13 17 7 9 - - 0.0
29/02:30am 2.0 -2.9 1.9 99 0.0 SW 17 24 9 13 - - 0.0
29/02:00am 1.8 -3.2 1.5 98 0.1 SW 17 20 9 11 - - 0.0
29/01:30am 1.7 -2.6 1.0 95 0.3 SW 13 17 7 9 - - 0.0
29/01:00am 2.0 -2.7 0.7 91 0.5 SW 15 20 8 11 - - 0.0
29/12:30am 2.3 -2.7 1.3 93 0.4 SW 17 26 9 14 - - 0.0
29/12:00am 2.1 -2.8 2.0 99 0.0 WSW 17 22 9 12 - - 0.0
 
Date/Time
EST
Temp
°C
App
Temp
°C
Dew
Point
°C
Rel
Hum
%
Delta-T
°C
Wind Press
QNH
hPa
Press
MSL
hPa
Rain since
9am
mm
Dir  Spd
km/h
Gust
km/h
Spd
kts
Gust
kts
28/11:30pm 2.0 -2.5 1.9 99 0.0 WSW 15 20 8 11 - - 0.0
28/11:00pm 1.8 -2.4 1.7 99 0.0 W 13 15 7 8 - - 0.0
28/10:30pm 2.0 -2.2 1.9 99 0.0 W 13 19 7 10 - - 0.0
28/10:00pm 2.0 -1.8 1.9 99 0.0 W 11 15 6 8 - - 0.0
28/09:30pm 2.0 -2.2 1.9 99 0.0 WSW 13 17 7 9 - - 0.0
28/09:00pm 2.1 -1.7 2.0 99 0.0 W 11 15 6 8 - - 0.0
28/08:30pm 2.2 -1.9 2.1 99 0.0 W 13 17 7 9 - - 0.0
28/08:00pm 2.3 -3.1 2.2 99 0.0 W 20 30 11 16 - - 0.0
28/07:30pm 2.5 -2.9 2.4 99 0.0 W 20 30 11 16 - - 0.0
28/07:00pm 2.6 -1.9 2.0 96 0.3 W 15 22 8 12 - - 0.0
28/06:30pm 2.8 -1.4 1.6 92 0.5 W 13 20 7 11 - - 0.0

Latest Capital City Observations: Canberra | Sydney | Melbourne | Brisbane | Adelaide | Perth | Hobart | Darwin

Other Formats:

Comma delimited format used in spreadsheet applications
http://www.bom.gov.au/fwo/IDN60903/IDN60903.95916.axf

JavaScript Object Notation format (JSON) in row-major order
http://www.bom.gov.au/fwo/IDN60903/IDN60903.95916.json